createdAt,value
2023-05-25T00:00:13.358Z,13.30
2023-05-25T00:02:40.460Z,13.65
2023-05-25T00:05:09.011Z,13.43
2023-05-25T00:07:36.032Z,13.35
2023-05-25T00:10:03.224Z,13.93
2023-05-25T00:12:29.990Z,14.02
2023-05-25T00:14:56.786Z,13.65
2023-05-25T00:17:24.385Z,14.15
2023-05-25T00:19:51.434Z,14.45
2023-05-25T00:22:18.291Z,13.47
2023-05-25T00:24:45.066Z,14.38
2023-05-25T00:27:11.880Z,13.88
2023-05-25T00:29:38.684Z,15.00
2023-05-25T00:32:05.896Z,15.00
2023-05-25T00:34:32.756Z,15.40
2023-05-25T00:36:59.503Z,15.55
2023-05-25T00:39:26.232Z,14.43
2023-05-25T00:41:53.020Z,14.68
2023-05-25T00:44:22.164Z,13.40
2023-05-25T00:46:50.703Z,14.57
2023-05-25T00:49:18.608Z,13.32
2023-05-25T00:51:48.619Z,14.70
2023-05-25T00:54:19.636Z,14.13
2023-05-25T00:56:56.797Z,13.75
2023-05-25T00:59:37.120Z,13.63
2023-05-25T01:02:08.399Z,14.00
2023-05-25T01:04:59.863Z,13.70
2023-05-25T01:07:27.087Z,13.73
2023-05-25T01:10:06.812Z,13.52
2023-05-25T01:12:37.189Z,14.97
2023-05-25T01:15:04.816Z,14.07
2023-05-25T01:17:32.323Z,14.02
2023-05-25T01:20:09.656Z,15.00
2023-05-25T01:22:48.723Z,13.68
2023-05-25T01:25:22.043Z,14.97
2023-05-25T01:28:07.809Z,14.05
2023-05-25T01:30:34.592Z,14.65
2023-05-25T01:33:01.707Z,14.77
2023-05-25T01:35:28.599Z,14.10
2023-05-25T01:37:55.595Z,15.50
2023-05-25T01:40:22.362Z,14.93
2023-05-25T01:42:49.117Z,14.65
2023-05-25T01:45:15.925Z,15.32
2023-05-25T01:47:46.930Z,15.30
2023-05-25T01:50:28.978Z,15.83
2023-05-25T01:53:00.805Z,14.95
2023-05-25T01:55:27.768Z,16.48
2023-05-25T01:57:58.018Z,15.57
2023-05-25T02:00:26.533Z,16.17
2023-05-25T02:02:53.450Z,16.40
2023-05-25T02:05:20.711Z,16.10
2023-05-25T02:07:47.619Z,15.07
2023-05-25T02:10:14.455Z,15.88
2023-05-25T02:12:41.189Z,16.77
2023-05-25T02:15:08.576Z,16.27
2023-05-25T02:17:37.365Z,17.33
2023-05-25T02:20:08.417Z,15.43
2023-05-25T02:22:35.375Z,15.02
2023-05-25T02:25:02.169Z,15.68
2023-05-25T02:27:28.963Z,15.67
2023-05-25T02:29:55.776Z,16.45
2023-05-25T02:32:22.574Z,15.32
2023-05-25T02:34:49.531Z,15.73
2023-05-25T02:37:16.332Z,15.57
2023-05-25T02:39:43.134Z,14.67
2023-05-25T02:42:09.887Z,15.13
2023-05-25T02:44:36.732Z,15.55
2023-05-25T02:47:03.628Z,15.65
2023-05-25T02:49:30.534Z,15.27
2023-05-25T02:51:57.316Z,15.13
2023-05-25T02:54:24.042Z,15.82
2023-05-25T02:56:50.958Z,16.65
2023-05-25T02:59:17.924Z,15.52
2023-05-25T03:01:46.369Z,15.68
2023-05-25T03:04:13.133Z,15.70
2023-05-25T03:06:39.963Z,15.65
2023-05-25T03:09:07.354Z,14.68
2023-05-25T03:11:34.133Z,15.23
2023-05-25T03:14:01.173Z,15.43
2023-05-25T03:16:28.021Z,16.03
2023-05-25T03:18:54.979Z,16.10
2023-05-25T03:21:24.729Z,15.48
2023-05-25T03:23:51.906Z,15.60
2023-05-25T03:26:18.870Z,15.43
2023-05-25T03:28:45.810Z,16.10
2023-05-25T03:31:12.790Z,15.80
2023-05-25T03:33:39.785Z,15.95
2023-05-25T03:36:08.972Z,15.77
2023-05-25T03:38:37.172Z,15.52
2023-05-25T03:41:04.065Z,15.43
2023-05-25T03:43:31.476Z,14.80
2023-05-25T03:45:58.288Z,13.30
2023-05-25T03:48:25.078Z,12.43
2023-05-25T03:50:51.922Z,12.40
2023-05-25T03:53:18.714Z,12.10
2023-05-25T03:55:45.684Z,11.02
2023-05-25T03:58:13.252Z,10.70
2023-05-25T04:00:40.074Z,10.60
2023-05-25T04:03:07.133Z,10.80
2023-05-25T04:05:33.992Z,10.63
2023-05-25T04:08:00.820Z,10.07
2023-05-25T04:10:27.628Z,9.57
2023-05-25T04:12:56.758Z,8.90
2023-05-25T04:15:23.638Z,9.98
2023-05-25T04:17:50.569Z,9.27
2023-05-25T04:20:17.399Z,9.45
2023-05-25T04:22:45.163Z,9.07
2023-05-25T04:25:12.066Z,9.00
2023-05-25T04:27:38.900Z,8.70
2023-05-25T04:30:06.538Z,8.73
2023-05-25T04:32:37.481Z,8.50
2023-05-25T04:35:05.588Z,8.20
2023-05-25T04:37:33.398Z,8.00
2023-05-25T04:40:00.319Z,7.72
2023-05-25T04:42:28.947Z,8.00
2023-05-25T04:44:55.948Z,7.40
2023-05-25T04:47:25.194Z,8.20
2023-05-25T04:49:53.020Z,8.10
2023-05-25T04:52:19.769Z,7.40
2023-05-25T04:54:46.998Z,7.50
2023-05-25T04:57:13.759Z,7.40
2023-05-25T04:59:41.048Z,7.20
2023-05-25T05:02:08.765Z,7.78
2023-05-25T05:04:37.372Z,6.68
2023-05-25T05:07:04.318Z,7.00
2023-05-25T05:09:31.095Z,6.85
2023-05-25T05:11:58.030Z,5.97
2023-05-25T05:14:24.877Z,6.95
2023-05-25T05:16:51.968Z,6.38
2023-05-25T05:19:18.878Z,6.57
2023-05-25T05:21:45.823Z,5.85
2023-05-25T05:24:12.635Z,6.13
2023-05-25T05:26:55.270Z,6.25
2023-05-25T05:29:24.095Z,5.80
2023-05-25T05:31:51.173Z,6.60
2023-05-25T05:34:18.144Z,5.60
2023-05-25T05:36:56.631Z,5.85
2023-05-25T05:39:25.230Z,6.03
2023-05-25T05:41:52.126Z,5.70
2023-05-25T05:44:20.582Z,5.73
2023-05-25T05:46:47.370Z,5.30
2023-05-25T05:49:14.163Z,5.55
2023-05-25T05:51:40.868Z,6.07
2023-05-25T05:54:07.579Z,5.75
2023-05-25T05:56:34.335Z,5.83
2023-05-25T05:59:01.194Z,5.72
2023-05-25T06:01:27.938Z,5.78
2023-05-25T06:03:55.928Z,5.60
2023-05-25T06:06:22.725Z,5.60
2023-05-25T06:08:49.444Z,5.83
2023-05-25T06:11:16.202Z,5.25
2023-05-25T06:13:44.214Z,5.40
2023-05-25T06:16:12.628Z,5.63
2023-05-25T06:18:39.686Z,5.70
2023-05-25T06:21:06.519Z,5.63
2023-05-25T06:23:33.247Z,5.55
2023-05-25T06:26:06.527Z,5.38
2023-05-25T06:28:33.355Z,5.00
2023-05-25T06:31:00.146Z,5.22
2023-05-25T06:33:26.948Z,5.20
2023-05-25T06:35:58.259Z,4.95
2023-05-25T06:38:25.128Z,5.50
2023-05-25T06:40:51.827Z,5.05
2023-05-25T06:43:18.662Z,5.63
2023-05-25T06:45:45.675Z,5.67
2023-05-25T06:48:12.847Z,6.10
2023-05-25T06:50:40.163Z,5.90
2023-05-25T06:53:06.901Z,5.97
2023-05-25T06:55:33.670Z,6.03
2023-05-25T06:58:00.476Z,5.50
2023-05-25T07:00:27.247Z,5.60
2023-05-25T07:02:54.069Z,5.85
2023-05-25T07:05:20.925Z,6.30
2023-05-25T07:07:47.765Z,5.90
2023-05-25T07:10:14.591Z,5.50
2023-05-25T07:12:41.355Z,5.47
2023-05-25T07:15:09.048Z,5.97
2023-05-25T07:17:36.678Z,5.68
2023-05-25T07:20:05.306Z,6.05
2023-05-25T07:22:32.181Z,6.03
2023-05-25T07:24:59.076Z,5.55
2023-05-25T07:27:25.832Z,5.47
2023-05-25T07:29:52.546Z,5.72
2023-05-25T07:32:19.348Z,5.70
2023-05-25T07:34:46.056Z,5.93
2023-05-25T07:37:12.787Z,6.15
2023-05-25T07:39:40.940Z,5.65
2023-05-25T07:42:07.921Z,5.30
2023-05-25T07:44:34.792Z,5.22
2023-05-25T07:47:01.646Z,5.60
2023-05-25T07:49:28.454Z,5.82
2023-05-25T07:51:55.156Z,5.05
2023-05-25T07:54:21.865Z,5.50
2023-05-25T07:56:48.801Z,5.85
2023-05-25T07:59:15.539Z,4.73
2023-05-25T08:01:42.279Z,5.43
2023-05-25T08:04:09.646Z,4.95
2023-05-25T08:06:36.552Z,5.35
2023-05-25T08:09:04.913Z,4.90
2023-05-25T08:11:31.667Z,5.80
2023-05-25T08:14:00.399Z,5.15
2023-05-25T08:16:27.299Z,5.25
2023-05-25T08:18:54.078Z,5.00
2023-05-25T08:21:20.997Z,4.63
2023-05-25T08:23:47.978Z,4.70
2023-05-25T08:26:34.144Z,5.47
2023-05-25T08:29:02.489Z,5.82
2023-05-25T08:31:29.374Z,5.90
2023-05-25T08:33:56.137Z,6.35
2023-05-25T08:36:22.925Z,5.37
2023-05-25T08:38:49.651Z,5.80
2023-05-25T08:41:16.780Z,5.20
2023-05-25T08:43:43.532Z,4.22
2023-05-25T08:46:10.440Z,4.82
2023-05-25T08:48:41.608Z,4.53
2023-05-25T08:51:11.224Z,6.07
2023-05-25T08:53:39.805Z,5.30
2023-05-25T08:56:27.054Z,5.45
2023-05-25T08:59:06.378Z,4.38
2023-05-25T09:01:33.943Z,4.20
2023-05-25T09:04:01.114Z,4.30
2023-05-25T09:06:28.458Z,4.60
2023-05-25T09:08:55.268Z,4.18
2023-05-25T09:11:36.073Z,4.60
2023-05-25T09:14:04.810Z,4.87
2023-05-25T09:16:33.182Z,4.28
2023-05-25T09:19:00.115Z,4.70
2023-05-25T09:21:27.343Z,4.30
2023-05-25T09:23:54.291Z,5.00
2023-05-25T09:26:21.334Z,4.07
2023-05-25T09:28:48.599Z,4.35
2023-05-25T09:31:15.754Z,4.30
2023-05-25T09:33:43.474Z,5.15
2023-05-25T09:36:10.946Z,4.40
2023-05-25T09:38:37.950Z,5.23
2023-05-25T09:41:06.175Z,5.07
2023-05-25T09:46:06.196Z,4.38
2023-05-25T09:48:33.016Z,4.88
2023-05-25T09:50:59.780Z,5.50
2023-05-25T09:53:26.736Z,4.53
2023-05-25T09:55:54.481Z,4.53
2023-05-25T09:58:23.796Z,3.72
2023-05-25T10:00:55.611Z,4.55
2023-05-25T10:03:22.743Z,5.07
2023-05-25T10:05:49.526Z,4.75
2023-05-25T10:08:17.892Z,4.70
2023-05-25T10:10:44.890Z,3.95
2023-05-25T10:13:11.843Z,4.40
2023-05-25T10:15:38.837Z,4.80
2023-05-25T10:18:05.949Z,4.22
2023-05-25T10:20:34.896Z,3.90
2023-05-25T10:23:08.643Z,4.28
2023-05-25T10:25:50.901Z,4.70
2023-05-25T10:28:22.214Z,4.67
2023-05-25T10:30:50.076Z,4.22
2023-05-25T10:33:16.864Z,4.60
2023-05-25T10:36:01.704Z,4.85
2023-05-25T10:38:31.579Z,4.20
2023-05-25T10:41:02.314Z,4.10
2023-05-25T10:43:29.059Z,4.25
2023-05-25T10:45:56.909Z,4.15
2023-05-25T10:48:25.152Z,4.00
2023-05-25T10:50:51.985Z,4.03
2023-05-25T10:53:21.161Z,4.50
2023-05-25T10:55:53.654Z,4.50
2023-05-25T10:58:23.547Z,4.07
2023-05-25T11:01:04.216Z,4.25
2023-05-25T11:03:50.855Z,5.28
2023-05-25T11:06:18.722Z,4.17
2023-05-25T11:08:52.073Z,3.97
2023-05-25T11:11:18.860Z,3.97
2023-05-25T11:13:46.839Z,4.13
2023-05-25T11:16:17.980Z,4.47
2023-05-25T11:18:52.612Z,3.97
2023-05-25T11:21:24.534Z,5.30
2023-05-25T11:24:17.123Z,4.97
2023-05-25T11:26:57.625Z,4.55
2023-05-25T11:29:25.919Z,4.70
2023-05-25T11:31:56.102Z,5.30
2023-05-25T11:34:24.490Z,4.55
2023-05-25T11:36:54.178Z,4.00
2023-05-25T11:39:23.024Z,4.40
2023-05-25T11:41:52.712Z,6.90
2023-05-25T11:44:28.131Z,5.07
2023-05-25T11:46:58.609Z,9.65
2023-05-25T11:49:25.934Z,5.10
2023-05-25T11:51:53.842Z,4.18
2023-05-25T11:54:25.063Z,4.07
2023-05-25T11:56:51.970Z,4.60
2023-05-25T11:59:18.747Z,4.25
2023-05-25T12:01:58.661Z,7.40
2023-05-25T12:04:25.592Z,5.47
2023-05-25T12:06:52.402Z,4.72
2023-05-25T12:09:22.311Z,5.77
2023-05-25T12:11:49.178Z,6.43
2023-05-25T12:14:16.112Z,6.20
2023-05-25T12:16:42.959Z,6.32
2023-05-25T12:19:11.417Z,7.93
2023-05-25T12:21:39.154Z,6.63
2023-05-25T12:24:06.488Z,8.15
2023-05-25T12:26:33.283Z,10.30
2023-05-25T12:29:07.442Z,5.50
2023-05-25T12:31:38.540Z,10.98
2023-05-25T12:34:14.861Z,6.03
2023-05-25T12:36:44.423Z,4.80
2023-05-25T12:39:12.274Z,5.43
2023-05-25T12:41:48.257Z,4.93
2023-05-25T12:44:31.504Z,5.32
2023-05-25T12:47:16.018Z,4.37
2023-05-25T12:49:44.055Z,4.70
2023-05-25T12:52:11.209Z,4.78
2023-05-25T12:54:46.168Z,4.65
2023-05-25T12:57:14.591Z,5.32
2023-05-25T12:59:42.852Z,3.90
2023-05-25T13:02:10.026Z,4.20
2023-05-25T13:04:40.813Z,3.97
2023-05-25T13:07:10.724Z,3.63
2023-05-25T13:09:37.860Z,4.05
2023-05-25T13:12:05.029Z,4.83
2023-05-25T13:14:31.921Z,4.20
2023-05-25T13:16:58.817Z,4.20
2023-05-25T13:19:26.048Z,4.85
2023-05-25T13:21:53.152Z,4.28
2023-05-25T13:24:20.045Z,4.67
2023-05-25T13:26:49.879Z,4.85
2023-05-25T13:29:17.755Z,4.10
2023-05-25T13:31:44.724Z,19.52
2023-05-25T13:34:11.753Z,4.75
2023-05-25T13:36:38.685Z,4.20
2023-05-25T13:39:05.547Z,4.40
2023-05-25T13:41:32.346Z,3.72
2023-05-25T13:43:59.229Z,3.95
2023-05-25T13:46:34.130Z,4.13
2023-05-25T13:49:02.496Z,3.80
2023-05-25T13:51:29.384Z,4.85
2023-05-25T13:53:56.154Z,4.13
2023-05-25T13:56:23.339Z,4.05
2023-05-25T13:58:50.314Z,4.47
2023-05-25T14:01:17.159Z,4.50
2023-05-25T14:03:44.213Z,3.55
2023-05-25T14:06:11.141Z,3.78
2023-05-25T14:08:38.107Z,3.65
2023-05-25T14:11:09.014Z,4.35
2023-05-25T14:13:36.649Z,4.00
2023-05-25T14:16:03.914Z,3.70
2023-05-25T14:18:30.955Z,3.78
2023-05-25T14:20:57.735Z,3.95
2023-05-25T14:23:24.476Z,3.92
2023-05-25T14:25:51.265Z,4.53
2023-05-25T14:28:17.960Z,4.43
2023-05-25T14:30:44.705Z,3.83
2023-05-25T14:33:14.260Z,3.50
2023-05-25T14:35:43.133Z,4.70
2023-05-25T14:38:10.319Z,3.80
2023-05-25T14:40:37.196Z,3.65
2023-05-25T14:43:04.038Z,4.00
2023-05-25T14:45:30.784Z,3.35
2023-05-25T14:48:11.883Z,3.92
2023-05-25T14:50:44.106Z,3.63
2023-05-25T14:53:10.916Z,4.00
2023-05-25T14:55:37.659Z,3.67
2023-05-25T14:58:04.376Z,4.45
2023-05-25T15:00:31.127Z,3.38
2023-05-25T15:02:58.295Z,4.10
2023-05-25T15:05:26.082Z,4.32
2023-05-25T15:07:52.872Z,3.55
2023-05-25T15:10:19.592Z,3.97
2023-05-25T15:12:46.287Z,3.30
2023-05-25T15:15:13.212Z,4.00
2023-05-25T15:17:40.134Z,4.05
2023-05-25T15:20:07.378Z,3.60
2023-05-25T15:22:34.105Z,3.53
2023-05-25T15:25:02.588Z,4.45
2023-05-25T15:27:29.673Z,3.43
2023-05-25T15:29:56.519Z,3.47
2023-05-25T15:32:23.238Z,4.03
2023-05-25T15:34:49.956Z,3.85
2023-05-25T15:37:16.685Z,4.20
2023-05-25T15:39:43.801Z,3.80
2023-05-25T15:42:10.702Z,4.25
2023-05-25T15:44:37.467Z,3.67
2023-05-25T15:47:04.379Z,3.42
2023-05-25T15:49:32.190Z,3.80
2023-05-25T15:51:58.898Z,3.23
2023-05-25T15:54:25.617Z,3.70
2023-05-25T15:56:53.548Z,3.20
2023-05-25T15:59:20.534Z,3.10
2023-05-25T16:01:47.434Z,3.53
2023-05-25T16:04:14.392Z,3.23
2023-05-25T16:06:41.175Z,2.90
2023-05-25T16:09:08.214Z,3.42
2023-05-25T16:11:35.593Z,3.40
2023-05-25T16:14:02.301Z,2.70
2023-05-25T16:16:29.708Z,4.03
2023-05-25T16:18:56.573Z,2.88
2023-05-25T16:21:23.299Z,3.50
2023-05-25T16:23:50.341Z,3.10
2023-05-25T16:26:17.109Z,2.42
2023-05-25T16:28:43.940Z,3.03
2023-05-25T16:31:12.243Z,2.58
2023-05-25T16:33:41.066Z,2.78
2023-05-25T16:36:08.248Z,3.03
2023-05-25T16:38:34.958Z,3.33
2023-05-25T16:41:01.680Z,2.83
2023-05-25T16:43:28.395Z,2.70
2023-05-25T16:45:55.137Z,2.85
2023-05-25T16:48:23.239Z,2.58
2023-05-25T16:50:50.171Z,2.75
2023-05-25T16:53:16.856Z,2.73
2023-05-25T16:55:43.926Z,2.85
2023-05-25T16:58:10.840Z,2.72
2023-05-25T17:00:37.550Z,2.40
2023-05-25T17:03:04.425Z,2.53
2023-05-25T17:05:31.184Z,2.40
2023-05-25T17:07:57.999Z,2.40
2023-05-25T17:10:24.731Z,2.72
2023-05-25T17:12:51.512Z,2.58
2023-05-25T17:15:18.314Z,2.88
2023-05-25T17:17:45.090Z,2.90
2023-05-25T17:20:11.996Z,3.13
2023-05-25T17:22:38.734Z,2.78
2023-05-25T17:25:11.784Z,2.90
2023-05-25T17:27:38.461Z,2.70
2023-05-25T17:30:05.709Z,3.30
2023-05-25T17:32:32.806Z,2.67
2023-05-25T17:34:59.549Z,2.67
2023-05-25T17:37:26.287Z,2.90
2023-05-25T17:39:53.051Z,3.13
2023-05-25T17:42:19.835Z,3.13
2023-05-25T17:44:46.537Z,3.08
2023-05-25T17:47:13.305Z,2.67
2023-05-25T17:49:40.036Z,3.00
2023-05-25T17:52:07.610Z,2.90
2023-05-25T17:54:37.012Z,2.83
2023-05-25T17:57:03.945Z,2.80
2023-05-25T17:59:30.756Z,2.88
2023-05-25T18:01:57.640Z,3.25
2023-05-25T18:04:24.430Z,2.60
2023-05-25T18:06:54.080Z,2.97
2023-05-25T18:09:21.053Z,3.08
2023-05-25T18:11:47.788Z,4.53
2023-05-25T18:14:14.570Z,9.52
2023-05-25T18:16:42.477Z,9.55
2023-05-25T18:19:09.587Z,8.40
2023-05-25T18:21:40.533Z,24.58
2023-05-25T18:24:08.441Z,57.25
2023-05-25T18:26:36.152Z,52.20
2023-05-25T18:29:03.053Z,60.65
2023-05-25T18:31:33.515Z,58.00
2023-05-25T18:34:00.544Z,29.85
2023-05-25T18:36:27.271Z,9.80
2023-05-25T18:38:54.066Z,12.30
2023-05-25T18:41:21.554Z,6.00
2023-05-25T18:43:49.180Z,3.77
2023-05-25T18:46:16.676Z,3.50
2023-05-25T18:48:43.486Z,2.75
2023-05-25T18:51:10.515Z,2.35
2023-05-25T18:53:37.249Z,2.72
2023-05-25T18:56:04.019Z,2.60
2023-05-25T18:58:31.169Z,2.10
2023-05-25T19:00:57.934Z,2.42
2023-05-25T19:03:24.838Z,2.60
2023-05-25T19:05:51.738Z,2.33
2023-05-25T19:08:18.440Z,2.83
2023-05-25T19:10:45.262Z,2.72
2023-05-25T19:13:12.127Z,2.70
2023-05-25T19:15:38.875Z,2.80
2023-05-25T19:18:05.862Z,2.83
2023-05-25T19:20:32.903Z,2.47
2023-05-25T19:23:00.002Z,2.33
2023-05-25T19:25:26.768Z,2.60
2023-05-25T19:27:53.702Z,2.80
2023-05-25T19:30:20.650Z,2.63
2023-05-25T19:32:47.436Z,3.13
2023-05-25T19:35:14.224Z,2.90
2023-05-25T19:37:41.331Z,2.83
2023-05-25T19:40:09.620Z,3.17
2023-05-25T19:42:36.700Z,3.35
2023-05-25T19:45:03.894Z,3.10
2023-05-25T19:47:31.552Z,2.95
2023-05-25T19:49:58.480Z,3.05
2023-05-25T19:52:25.268Z,3.13
2023-05-25T19:54:52.055Z,3.35
2023-05-25T19:57:19.900Z,3.40
2023-05-25T19:59:47.030Z,3.47
2023-05-25T20:02:13.820Z,3.85
2023-05-25T20:04:41.487Z,3.85
2023-05-25T20:07:08.314Z,3.97
2023-05-25T20:09:35.798Z,4.13
2023-05-25T20:12:03.259Z,3.65
2023-05-25T20:14:33.769Z,4.00
2023-05-25T20:17:00.632Z,3.40
2023-05-25T20:19:27.449Z,3.67
2023-05-25T20:21:54.365Z,4.03
2023-05-25T20:24:22.154Z,4.43
2023-05-25T20:26:49.165Z,4.20
2023-05-25T20:29:15.977Z,4.30
2023-05-25T20:31:42.771Z,4.15
2023-05-25T20:34:09.607Z,4.37
2023-05-25T20:36:36.672Z,4.40
2023-05-25T20:39:03.650Z,4.25
2023-05-25T20:41:30.453Z,3.97
2023-05-25T20:43:57.371Z,4.70
2023-05-25T20:46:24.201Z,4.60
2023-05-25T20:48:52.019Z,4.28
2023-05-25T20:51:18.833Z,4.30
2023-05-25T20:53:45.687Z,4.80
2023-05-25T20:56:12.573Z,4.18
2023-05-25T20:58:39.785Z,4.77
2023-05-25T21:01:06.600Z,4.80
2023-05-25T21:03:33.563Z,4.97
2023-05-25T21:06:00.628Z,4.90
2023-05-25T21:08:27.393Z,5.43
2023-05-25T21:10:54.762Z,5.50
2023-05-25T21:13:21.545Z,5.18
2023-05-25T21:15:48.455Z,4.88
2023-05-25T21:18:15.555Z,5.28
2023-05-25T21:20:42.496Z,4.88
2023-05-25T21:23:09.369Z,5.07
2023-05-25T21:25:36.478Z,5.60
2023-05-25T21:28:03.236Z,5.20
2023-05-25T21:30:29.995Z,5.05
2023-05-25T21:32:56.796Z,5.15
2023-05-25T21:35:23.737Z,5.63
2023-05-25T21:37:50.599Z,5.75
2023-05-25T21:40:17.445Z,5.28
2023-05-25T21:42:44.272Z,5.85
2023-05-25T21:45:11.150Z,5.50
2023-05-25T21:47:37.985Z,5.87
2023-05-25T21:50:05.524Z,5.90
2023-05-25T21:52:32.337Z,5.72
2023-05-25T21:54:59.128Z,5.85
2023-05-25T21:57:25.987Z,5.65
2023-05-25T21:59:52.766Z,5.47
2023-05-25T22:02:20.269Z,5.60
2023-05-25T22:04:47.247Z,5.70
2023-05-25T22:07:14.077Z,5.82
2023-05-25T22:09:40.898Z,5.45
2023-05-25T22:12:07.717Z,5.33
2023-05-25T22:14:34.559Z,6.05
2023-05-25T22:17:01.359Z,5.40
2023-05-25T22:19:28.189Z,5.38
2023-05-25T22:21:54.932Z,5.40
2023-05-25T22:24:21.715Z,5.27
2023-05-25T22:26:48.593Z,5.43
2023-05-25T22:29:15.624Z,5.50
2023-05-25T22:31:42.455Z,5.88
2023-05-25T22:34:09.288Z,5.03
2023-05-25T22:36:37.234Z,5.17
2023-05-25T22:39:04.086Z,5.28
2023-05-25T22:41:31.234Z,5.40
2023-05-25T22:43:57.996Z,4.70
2023-05-25T22:46:24.847Z,5.15
2023-05-25T22:48:51.785Z,5.23
2023-05-25T22:51:18.563Z,5.20
2023-05-25T22:53:45.641Z,4.95
2023-05-25T22:56:12.382Z,4.50
2023-05-25T22:58:39.196Z,5.30
2023-05-25T23:01:06.076Z,4.90
2023-05-25T23:03:32.930Z,5.10
2023-05-25T23:05:59.840Z,5.47
2023-05-25T23:08:26.827Z,5.28
2023-05-25T23:10:53.624Z,4.47
2023-05-25T23:13:24.037Z,4.80
2023-05-25T23:15:50.924Z,5.03
2023-05-25T23:18:17.884Z,4.72
2023-05-25T23:20:45.024Z,4.95
2023-05-25T23:23:12.195Z,4.30
2023-05-25T23:25:39.058Z,4.70
2023-05-25T23:28:05.824Z,4.15
2023-05-25T23:30:32.633Z,4.72
2023-05-25T23:33:00.172Z,4.88
2023-05-25T23:35:27.440Z,4.53
2023-05-25T23:37:54.822Z,4.80
2023-05-25T23:40:21.602Z,4.53
2023-05-25T23:42:48.396Z,5.00
2023-05-25T23:45:15.164Z,4.78
2023-05-25T23:47:42.046Z,4.60
2023-05-25T23:50:09.381Z,4.20
2023-05-25T23:52:36.196Z,4.50
2023-05-25T23:55:02.954Z,3.95
2023-05-25T23:57:29.777Z,4.38
2023-05-25T23:59:56.589Z,4.97
